createdAt,value
2023-01-09T00:01:53.504Z,7.65
2023-01-09T00:04:43.040Z,7.68
2023-01-09T00:07:32.385Z,7.72
2023-01-09T00:10:21.920Z,7.62
2023-01-09T00:13:13.396Z,7.63
2023-01-09T00:16:02.652Z,7.77
2023-01-09T00:18:53.750Z,7.66
2023-01-09T00:21:43.096Z,7.74
2023-01-09T00:24:32.458Z,7.81
2023-01-09T00:27:22.049Z,7.80
2023-01-09T00:30:13.215Z,7.73
2023-01-09T00:33:02.551Z,7.74
2023-01-09T00:35:53.947Z,7.72
2023-01-09T00:38:43.204Z,7.70
2023-01-09T00:41:36.716Z,7.63
2023-01-09T00:44:31.450Z,7.78
2023-01-09T00:47:26.573Z,7.73
2023-01-09T00:50:20.988Z,7.77
2023-01-09T00:53:18.322Z,7.82
2023-01-09T00:56:14.969Z,7.77
2023-01-09T00:59:04.823Z,7.77
2023-01-09T01:01:54.154Z,7.80
2023-01-09T01:05:01.147Z,7.91
2023-01-09T01:07:50.864Z,8.00
2023-01-09T01:10:42.199Z,7.99
2023-01-09T01:13:31.448Z,8.03
2023-01-09T01:16:21.098Z,8.12
2023-01-09T01:19:10.454Z,8.05
2023-01-09T01:21:59.702Z,8.07
2023-01-09T01:24:49.065Z,8.02
2023-01-09T01:27:40.136Z,8.08
2023-01-09T01:30:31.444Z,8.16
2023-01-09T01:33:20.725Z,8.02
2023-01-09T01:36:11.204Z,8.15
2023-01-09T01:39:00.423Z,8.07
2023-01-09T01:41:49.615Z,8.18
2023-01-09T01:45:08.468Z,8.18
2023-01-09T01:48:03.152Z,8.12
2023-01-09T01:50:57.663Z,8.05
2023-01-09T01:53:50.644Z,8.08
2023-01-09T01:56:45.804Z,8.00
2023-01-09T01:59:39.764Z,7.95
2023-01-09T02:02:33.653Z,8.04
2023-01-09T02:05:26.322Z,8.06
2023-01-09T02:08:15.883Z,8.02
2023-01-09T02:11:06.586Z,7.97
2023-01-09T02:13:55.871Z,7.92
2023-01-09T02:16:56.261Z,7.90
2023-01-09T02:20:43.515Z,7.96
2023-01-09T02:24:26.449Z,8.06
2023-01-09T02:27:42.023Z,7.98
2023-01-09T02:30:44.901Z,8.02
2023-01-09T02:33:54.762Z,8.02
2023-01-09T02:36:55.902Z,8.06
2023-01-09T02:39:53.854Z,7.98
2023-01-09T02:42:45.407Z,8.12
2023-01-09T02:45:36.039Z,8.09
2023-01-09T02:48:25.480Z,8.18
2023-01-09T02:51:23.963Z,8.03
2023-01-09T02:54:29.647Z,8.01
2023-01-09T02:57:44.171Z,8.12
2023-01-09T03:00:44.684Z,8.08
2023-01-09T03:03:41.566Z,8.10
2023-01-09T03:06:39.605Z,7.87
2023-01-09T03:09:33.036Z,8.08
2023-01-09T03:12:26.016Z,8.07
2023-01-09T03:15:19.482Z,8.21
2023-01-09T03:18:12.993Z,8.21
2023-01-09T03:21:03.449Z,8.33
2023-01-09T03:23:57.383Z,8.37
2023-01-09T03:26:46.574Z,8.37
2023-01-09T03:29:35.900Z,8.40
2023-01-09T03:32:27.830Z,8.36
2023-01-09T03:35:18.617Z,8.34
2023-01-09T03:38:08.123Z,8.31
2023-01-09T03:40:57.373Z,8.23
2023-01-09T03:43:47.958Z,8.22
2023-01-09T03:46:37.139Z,8.26
2023-01-09T03:49:26.466Z,8.06
2023-01-09T03:52:17.131Z,8.08
2023-01-09T03:55:07.452Z,8.01
2023-01-09T03:57:56.655Z,8.02
2023-01-09T04:00:48.891Z,7.90
2023-01-09T04:03:38.277Z,7.98
2023-01-09T04:06:27.549Z,7.93
2023-01-09T04:09:18.157Z,7.97
2023-01-09T04:12:08.271Z,7.97
2023-01-09T04:14:57.410Z,7.96
2023-01-09T04:17:46.632Z,7.99
2023-01-09T04:20:36.076Z,8.02
2023-01-09T04:23:25.288Z,7.83
2023-01-09T04:26:16.059Z,7.92
2023-01-09T04:29:05.432Z,7.88
2023-01-09T04:31:54.775Z,7.89
2023-01-09T04:34:44.147Z,7.94
2023-01-09T04:37:33.488Z,7.87
2023-01-09T04:40:22.844Z,7.78
2023-01-09T04:43:13.517Z,7.76
2023-01-09T04:46:04.018Z,7.76
2023-01-09T04:48:53.219Z,7.75
2023-01-09T04:51:42.588Z,7.79
2023-01-09T04:54:32.022Z,7.72
2023-01-09T04:57:21.859Z,7.67
2023-01-09T05:00:13.663Z,7.57
2023-01-09T05:03:02.962Z,7.56
2023-01-09T05:05:52.268Z,7.45
2023-01-09T05:08:41.615Z,7.36
2023-01-09T05:11:30.870Z,7.33
2023-01-09T05:14:20.287Z,7.43
2023-01-09T05:17:10.972Z,7.43
2023-01-09T05:20:01.183Z,7.37
2023-01-09T05:22:50.582Z,7.37
2023-01-09T05:25:39.778Z,7.28
2023-01-09T05:28:28.932Z,7.25
2023-01-09T05:31:18.212Z,7.23
2023-01-09T05:34:08.992Z,7.09
2023-01-09T05:36:58.269Z,7.19
2023-01-09T05:39:47.448Z,7.13
2023-01-09T05:42:36.822Z,7.14
2023-01-09T05:45:27.350Z,7.13
2023-01-09T05:48:16.572Z,7.15
2023-01-09T05:51:07.505Z,7.05
2023-01-09T05:53:56.693Z,6.95
2023-01-09T05:56:46.152Z,7.07
2023-01-09T05:59:35.574Z,7.07
2023-01-09T06:02:24.978Z,6.98
2023-01-09T06:05:14.291Z,7.03
2023-01-09T06:08:04.964Z,7.03
2023-01-09T06:10:54.250Z,6.85
2023-01-09T06:13:43.633Z,6.88
2023-01-09T06:16:33.249Z,6.77
2023-01-09T06:19:22.562Z,6.87
2023-01-09T06:22:11.786Z,6.91
2023-01-09T06:25:02.573Z,6.86
2023-01-09T06:27:52.310Z,6.87
2023-01-09T06:30:41.665Z,6.91
2023-01-09T06:33:30.878Z,6.86
2023-01-09T06:36:22.309Z,6.96
2023-01-09T06:39:14.193Z,6.75
2023-01-09T06:42:05.992Z,6.77
2023-01-09T06:44:55.289Z,6.91
2023-01-09T06:47:44.621Z,6.94
2023-01-09T06:50:34.150Z,6.86
2023-01-09T06:53:23.498Z,6.75
2023-01-09T06:56:12.769Z,6.82
2023-01-09T06:59:03.347Z,6.79
2023-01-09T07:01:53.179Z,6.93
2023-01-09T07:04:42.449Z,6.89
2023-01-09T07:07:31.655Z,6.77
2023-01-09T07:10:21.105Z,6.77
2023-01-09T07:13:10.723Z,6.77
2023-01-09T07:16:03.400Z,6.79
2023-01-09T07:18:52.661Z,6.75
2023-01-09T07:21:41.895Z,6.80
2023-01-09T07:24:31.327Z,6.66
2023-01-09T07:27:21.551Z,6.68
2023-01-09T07:30:12.981Z,6.72
2023-01-09T07:33:04.172Z,6.67
2023-01-09T07:35:53.534Z,6.69
2023-01-09T07:38:42.764Z,6.67
2023-01-09T07:41:32.000Z,6.50
2023-01-09T07:44:22.681Z,6.65
2023-01-09T07:47:12.160Z,6.58
2023-01-09T07:50:02.928Z,6.62
2023-01-09T07:52:52.261Z,6.69
2023-01-09T07:55:43.755Z,6.62
2023-01-09T07:58:33.001Z,6.57
2023-01-09T08:01:22.492Z,6.62
2023-01-09T08:04:12.110Z,6.59
2023-01-09T08:07:03.771Z,6.57
2023-01-09T08:09:52.992Z,6.58
2023-01-09T08:12:45.706Z,6.38
2023-01-09T08:15:35.029Z,6.32
2023-01-09T08:18:24.276Z,6.54
2023-01-09T08:21:14.433Z,6.44
2023-01-09T08:24:05.416Z,6.35
2023-01-09T08:26:54.568Z,6.40
2023-01-09T08:29:43.784Z,6.42
2023-01-09T08:32:33.006Z,6.39
2023-01-09T08:35:22.540Z,6.40
2023-01-09T08:38:12.256Z,6.46
2023-01-09T08:41:23.681Z,6.54
2023-01-09T08:44:30.088Z,6.61
2023-01-09T08:47:23.574Z,6.54
2023-01-09T08:50:13.360Z,6.67
2023-01-09T08:53:02.631Z,6.66
2023-01-09T08:55:51.949Z,6.55
2023-01-09T08:58:42.554Z,6.57
2023-01-09T09:01:31.932Z,6.66
2023-01-09T09:04:21.348Z,6.43
2023-01-09T09:07:10.749Z,6.57
2023-01-09T09:09:59.983Z,6.44
2023-01-09T09:12:51.863Z,6.47
2023-01-09T09:15:42.565Z,6.44
2023-01-09T09:18:31.791Z,6.58
2023-01-09T09:21:21.608Z,6.44
2023-01-09T09:24:11.020Z,6.48
2023-01-09T09:27:00.279Z,6.26
2023-01-09T09:29:49.584Z,6.43
2023-01-09T09:32:40.589Z,6.51
2023-01-09T09:35:31.470Z,6.41
2023-01-09T09:38:20.815Z,6.65
2023-01-09T09:41:46.847Z,6.48
2023-01-09T09:44:59.489Z,6.51
2023-01-09T09:48:06.205Z,6.39
2023-01-09T09:51:25.926Z,6.49
2023-01-09T09:54:19.662Z,6.51
2023-01-09T09:57:17.788Z,6.64
2023-01-09T10:00:09.267Z,6.58
2023-01-09T10:03:07.353Z,6.66
2023-01-09T10:05:59.219Z,6.58
2023-01-09T10:08:57.202Z,6.73
2023-01-09T10:11:54.100Z,6.71
2023-01-09T10:14:43.457Z,6.83
2023-01-09T10:18:06.453Z,6.89
2023-01-09T10:21:01.440Z,6.89
2023-01-09T10:24:11.706Z,6.88
2023-01-09T10:27:11.278Z,6.88
2023-01-09T10:30:24.257Z,6.95
2023-01-09T10:33:35.235Z,7.05
2023-01-09T10:36:48.503Z,7.18
2023-01-09T10:39:43.272Z,7.18
2023-01-09T10:42:36.959Z,7.16
2023-01-09T10:45:29.871Z,7.21
2023-01-09T10:48:30.057Z,7.24
2023-01-09T10:51:23.020Z,7.34
2023-01-09T10:54:16.056Z,7.33
2023-01-09T10:57:11.397Z,7.35
2023-01-09T11:00:00.754Z,7.58
2023-01-09T11:02:50.481Z,7.40
2023-01-09T11:05:41.584Z,7.47
2023-01-09T11:08:36.408Z,7.56
2023-01-09T11:11:36.765Z,7.51
2023-01-09T11:14:31.821Z,7.57
2023-01-09T11:17:23.359Z,7.49
2023-01-09T11:20:21.237Z,7.61
2023-01-09T11:23:30.045Z,7.72
2023-01-09T11:26:26.781Z,7.72
2023-01-09T11:29:17.860Z,7.81
2023-01-09T11:32:09.851Z,7.78
2023-01-09T11:34:59.193Z,7.91
2023-01-09T11:37:58.034Z,7.83
2023-01-09T11:40:51.881Z,7.90
2023-01-09T11:43:41.705Z,8.02
2023-01-09T11:46:38.611Z,7.97
2023-01-09T11:49:30.005Z,8.08
2023-01-09T11:52:22.345Z,8.07
2023-01-09T11:55:17.147Z,8.22
2023-01-09T11:58:13.421Z,8.45
2023-01-09T12:01:19.437Z,9.13
2023-01-09T12:04:29.750Z,9.79
2023-01-09T12:07:56.122Z,10.20
2023-01-09T12:11:04.707Z,10.57
2023-01-09T12:14:18.331Z,10.52
2023-01-09T12:17:48.735Z,10.68
2023-01-09T12:21:00.734Z,10.76
2023-01-09T12:24:12.258Z,10.43
2023-01-09T12:27:20.073Z,10.04
2023-01-09T12:30:46.092Z,9.82
2023-01-09T12:33:44.971Z,9.53
2023-01-09T12:36:43.842Z,9.62
2023-01-09T12:39:44.747Z,9.53
2023-01-09T12:42:49.290Z,9.66
2023-01-09T12:46:02.105Z,9.69
2023-01-09T12:49:16.864Z,9.79
2023-01-09T12:52:13.461Z,9.84
2023-01-09T12:55:14.313Z,9.99
2023-01-09T12:58:10.240Z,10.00
2023-01-09T13:01:03.862Z,10.12
2023-01-09T13:04:07.725Z,10.28
2023-01-09T13:07:04.565Z,10.40
2023-01-09T13:10:00.960Z,10.35
2023-01-09T13:12:51.677Z,10.63
2023-01-09T13:15:45.508Z,10.72
2023-01-09T13:18:41.123Z,10.82
2023-01-09T13:21:30.743Z,10.78
2023-01-09T13:24:26.279Z,10.73
2023-01-09T13:27:19.352Z,10.80
2023-01-09T13:30:37.929Z,10.58
2023-01-09T13:33:29.788Z,10.50
2023-01-09T13:36:29.303Z,10.21
2023-01-09T13:39:25.535Z,10.19
2023-01-09T13:42:39.808Z,9.89
2023-01-09T13:45:31.640Z,9.86
2023-01-09T13:48:42.364Z,9.79
2023-01-09T13:52:02.805Z,9.79
2023-01-09T13:55:31.820Z,9.82
2023-01-09T13:58:26.011Z,9.64
2023-01-09T14:01:47.610Z,9.76
2023-01-09T14:04:46.152Z,9.80
2023-01-09T14:07:37.848Z,9.91
2023-01-09T14:10:31.101Z,9.87
2023-01-09T14:13:24.872Z,9.88
2023-01-09T14:16:20.872Z,9.79
2023-01-09T14:19:36.034Z,9.90
2023-01-09T14:22:29.235Z,9.83
2023-01-09T14:25:24.827Z,9.79
2023-01-09T14:28:23.506Z,9.77
2023-01-09T14:31:29.417Z,9.72
2023-01-09T14:34:32.476Z,9.83
2023-01-09T14:37:22.562Z,9.72
2023-01-09T14:40:23.440Z,9.88
2023-01-09T14:43:34.652Z,9.94
2023-01-09T14:46:25.566Z,9.92
2023-01-09T14:49:25.453Z,9.94
2023-01-09T14:52:23.744Z,10.06
2023-01-09T14:55:24.017Z,9.96
2023-01-09T14:58:22.508Z,10.04
2023-01-09T15:01:19.384Z,9.97
2023-01-09T15:04:24.479Z,9.99
2023-01-09T15:07:21.986Z,10.13
2023-01-09T15:10:19.949Z,9.92
2023-01-09T15:13:19.644Z,9.94
2023-01-09T15:16:19.870Z,9.95
2023-01-09T15:19:10.774Z,10.04
2023-01-09T15:22:03.661Z,10.00
2023-01-09T15:24:52.974Z,10.00
2023-01-09T15:27:49.727Z,9.85
2023-01-09T15:30:41.944Z,9.79
2023-01-09T15:33:31.591Z,9.73
2023-01-09T15:36:25.375Z,9.55
2023-01-09T15:39:19.680Z,9.45
2023-01-09T15:42:41.126Z,9.65
2023-01-09T15:45:35.587Z,9.52
2023-01-09T15:48:29.403Z,9.57
2023-01-09T15:51:18.816Z,9.49
2023-01-09T15:54:08.163Z,9.52
2023-01-09T15:57:34.102Z,9.35
2023-01-09T16:00:44.095Z,9.23
2023-01-09T16:03:39.159Z,9.24
2023-01-09T16:06:31.663Z,9.26
2023-01-09T16:09:27.338Z,9.25
2023-01-09T16:12:22.972Z,9.19
2023-01-09T16:15:19.201Z,9.05
2023-01-09T16:18:29.857Z,9.07
2023-01-09T16:21:36.717Z,9.08
2023-01-09T16:24:29.692Z,9.04
2023-01-09T16:27:26.428Z,9.06
2023-01-09T16:30:28.005Z,8.94
2023-01-09T16:33:23.212Z,9.01
2023-01-09T16:36:13.881Z,8.97
2023-01-09T16:39:05.657Z,8.83
2023-01-09T16:42:16.114Z,8.71
2023-01-09T16:45:06.266Z,8.86
2023-01-09T16:47:55.817Z,8.80
2023-01-09T16:50:45.691Z,8.74
2023-01-09T16:53:35.006Z,8.84
2023-01-09T16:56:28.933Z,8.85
2023-01-09T16:59:24.783Z,8.86
2023-01-09T17:02:19.313Z,8.95
2023-01-09T17:05:09.451Z,8.96
2023-01-09T17:07:58.701Z,8.97
2023-01-09T17:10:47.939Z,8.78
2023-01-09T17:13:38.555Z,8.90
2023-01-09T17:16:29.193Z,8.78
2023-01-09T17:19:21.736Z,8.70
2023-01-09T17:22:11.315Z,8.68
2023-01-09T17:25:17.746Z,8.69
2023-01-09T17:28:25.164Z,8.49
2023-01-09T17:31:15.935Z,8.77
2023-01-09T17:34:05.191Z,8.79
2023-01-09T17:36:55.756Z,8.76
2023-01-09T17:39:45.428Z,8.73
2023-01-09T17:42:34.754Z,8.77
2023-01-09T17:45:24.041Z,8.77
2023-01-09T17:48:20.260Z,8.69
2023-01-09T17:51:10.878Z,8.75
2023-01-09T17:54:00.541Z,8.62
2023-01-09T17:56:52.385Z,8.69
2023-01-09T17:59:41.595Z,8.72
2023-01-09T18:02:30.862Z,8.82
2023-01-09T18:05:21.817Z,8.75
2023-01-09T18:08:13.962Z,8.80
2023-01-09T18:11:04.568Z,8.83
2023-01-09T18:13:54.843Z,8.83
2023-01-09T18:16:45.171Z,8.79
2023-01-09T18:19:34.788Z,8.68
2023-01-09T18:22:25.436Z,8.74
2023-01-09T18:25:15.181Z,8.71
2023-01-09T18:28:04.528Z,8.69
2023-01-09T18:30:53.805Z,8.58
2023-01-09T18:33:43.275Z,8.52
2023-01-09T18:36:33.786Z,8.51
2023-01-09T18:39:24.575Z,8.47
2023-01-09T18:42:14.027Z,8.41
2023-01-09T18:45:03.531Z,8.28
2023-01-09T18:47:52.906Z,8.38
2023-01-09T18:50:42.129Z,8.33
2023-01-09T18:53:31.398Z,8.34
2023-01-09T18:56:22.688Z,8.31
2023-01-09T18:59:12.433Z,8.31
2023-01-09T19:02:02.349Z,8.26
2023-01-09T19:04:52.102Z,8.27
2023-01-09T19:07:41.437Z,8.19
2023-01-09T19:10:30.676Z,8.27
2023-01-09T19:13:21.279Z,8.21
2023-01-09T19:16:11.081Z,8.14
2023-01-09T19:19:02.747Z,8.24
2023-01-09T19:21:52.106Z,8.17
2023-01-09T19:24:41.430Z,8.24
2023-01-09T19:27:31.470Z,8.07
2023-01-09T19:30:22.409Z,8.13
2023-01-09T19:33:13.141Z,8.11
2023-01-09T19:36:02.347Z,8.11
2023-01-09T19:38:57.223Z,8.12
2023-01-09T19:41:46.667Z,8.10
2023-01-09T19:44:35.890Z,8.14
2023-01-09T19:47:26.539Z,8.23
2023-01-09T19:50:16.626Z,8.26
2023-01-09T19:53:05.890Z,8.24
2023-01-09T19:55:55.130Z,8.13
2023-01-09T19:58:50.160Z,8.27
2023-01-09T20:01:41.812Z,8.14
2023-01-09T20:04:32.655Z,8.20
2023-01-09T20:07:22.493Z,8.19
2023-01-09T20:10:12.461Z,8.07
2023-01-09T20:13:01.919Z,8.15
2023-01-09T20:15:51.200Z,8.21
2023-01-09T20:18:40.910Z,8.12
2023-01-09T20:21:31.830Z,8.25
2023-01-09T20:24:21.175Z,8.26
2023-01-09T20:27:10.410Z,8.31
2023-01-09T20:29:59.785Z,8.32
2023-01-09T20:32:49.509Z,8.39
2023-01-09T20:35:38.756Z,8.35
2023-01-09T20:38:29.627Z,8.34
2023-01-09T20:41:23.655Z,8.33
2023-01-09T20:44:15.786Z,8.43
2023-01-09T20:47:05.220Z,8.40
2023-01-09T20:49:54.518Z,8.43
2023-01-09T20:52:43.929Z,8.34
2023-01-09T20:55:34.919Z,8.27
2023-01-09T20:58:24.129Z,8.28
2023-01-09T21:01:15.284Z,8.18
2023-01-09T21:04:04.719Z,8.26
2023-01-09T21:06:54.053Z,8.25
2023-01-09T21:09:43.378Z,8.20
2023-01-09T21:12:38.693Z,8.21
2023-01-09T21:15:28.303Z,8.21
2023-01-09T21:18:17.624Z,8.06
2023-01-09T21:21:09.565Z,8.06
2023-01-09T21:24:01.654Z,8.09
2023-01-09T21:26:51.048Z,8.05
2023-01-09T21:29:41.972Z,8.04
2023-01-09T21:32:32.835Z,8.04
2023-01-09T21:35:22.129Z,8.07
2023-01-09T21:38:11.430Z,8.01
2023-01-09T21:41:21.439Z,8.01
2023-01-09T21:44:31.624Z,8.07
2023-01-09T21:47:22.925Z,7.97
2023-01-09T21:50:12.736Z,8.02
2023-01-09T21:53:02.319Z,8.03
2023-01-09T21:55:52.934Z,8.02
2023-01-09T21:58:45.601Z,8.02
2023-01-09T22:01:35.084Z,7.96
2023-01-09T22:04:29.111Z,8.03
2023-01-09T22:07:18.732Z,8.08
2023-01-09T22:10:10.052Z,8.09
2023-01-09T22:13:16.303Z,8.12
2023-01-09T22:16:08.192Z,8.01
2023-01-09T22:18:58.273Z,8.07
2023-01-09T22:21:49.594Z,8.09
2023-01-09T22:24:38.983Z,8.20
2023-01-09T22:27:28.396Z,8.19
2023-01-09T22:30:18.308Z,8.14
2023-01-09T22:33:10.715Z,8.18
2023-01-09T22:36:07.554Z,8.13
2023-01-09T22:38:59.907Z,8.10
2023-01-09T22:41:54.520Z,8.20
2023-01-09T22:44:43.690Z,8.22
2023-01-09T22:47:32.995Z,8.29
2023-01-09T22:50:22.367Z,8.30
2023-01-09T22:53:11.818Z,8.38
2023-01-09T22:56:06.113Z,8.27
2023-01-09T22:58:58.494Z,8.29
2023-01-09T23:01:47.937Z,8.31
2023-01-09T23:04:37.349Z,8.33
2023-01-09T23:07:27.116Z,8.33
2023-01-09T23:10:17.311Z,8.35
2023-01-09T23:13:08.125Z,8.35
2023-01-09T23:15:57.638Z,8.41
2023-01-09T23:18:46.877Z,8.46
2023-01-09T23:21:36.163Z,8.48
2023-01-09T23:24:25.424Z,8.46
2023-01-09T23:27:14.794Z,8.38
2023-01-09T23:30:06.634Z,8.51
2023-01-09T23:32:55.893Z,8.51
2023-01-09T23:35:45.541Z,8.58
2023-01-09T23:38:34.933Z,8.52
2023-01-09T23:41:45.044Z,8.52
2023-01-09T23:44:33.322Z,8.63
2023-01-09T23:47:24.011Z,8.58
2023-01-09T23:50:13.669Z,8.62
2023-01-09T23:53:03.294Z,8.62
2023-01-09T23:55:55.856Z,8.64
2023-01-09T23:58:45.212Z,8.62
